Thursday, January 29, 2015, 5:14 AM EST

KMDT, Harrisburg International Airport

Location: Middletown, PA, United States Lat: 40.2
Local Time: 5:14 AM EST (10:14 GMT) Lon: -76.767
Time Zone: US/Eastern Elev: 308 ft

Show me the last for .
Show Decoded

2015-01-29 04:56 METAR KMDT 290956Z 31008KT 10SM FEW250 M09/M14 A3031 =
2015-01-29 03:56 METAR KMDT 290856Z 32009KT 10SM FEW250 M09/M14 A3032 RMK AO2 SLP272 T10891144
                 53001 =
2015-01-29 02:56 METAR KMDT 290756Z 33007KT 10SM FEW250 M09/M14 A3031 =
2015-01-29 01:56 METAR KMDT 290656Z 31010KT 10SM FEW250 M08/M14 A3032 RMK AO2 SLP271 T10831139 =
2015-01-29 00:56 METAR KMDT 290556Z 00000KT 10SM CLR M09/M14 A3032 RMK AO2 SLP271 4/002 T10941144
                 11033 21094 50003 =
2015-01-28 23:56 METAR KMDT 290456Z 32005KT 10SM CLR M09/M15 A3032 RMK AO2 SLP273 T10941150
                 400001100 =
2015-01-28 22:56 METAR KMDT 290356Z 32006KT 10SM FEW250 M07/M14 A3031 RMK AO2 SLP269 T10671144 =
2015-01-28 21:56 METAR KMDT 290256Z 32009KT 10SM FEW250 M06/M14 A3031 RMK AO2 SLP268 T10611139
                 51013 =
2015-01-28 20:56 METAR KMDT 290156Z 30003KT 10SM FEW250 M06/M14 A3029 =
2015-01-28 19:56 METAR KMDT 290056Z 33005KT 10SM FEW250 M06/M14 A3028 =
2015-01-28 18:56 METAR KMDT 282356Z 29007KT 10SM FEW250 M06/M14 A3027 =
2015-01-28 17:56 METAR KMDT 282256Z 31007KT 10SM FEW250 M04/M13 A3025 =
2015-01-28 16:56 METAR KMDT 282156Z 30012KT 10SM FEW250 M02/M13 A3022 RMK AO2 SLP238 T10221133 =
2015-01-28 15:56 METAR KMDT 282056Z 31015KT 10SM CLR M01/M14 A3020 RMK AO2 SLP232 T10061144 53006
                 =
2015-01-28 14:56 METAR KMDT 281956Z 32014KT 10SM CLR M01/M13 A3019 RMK AO2 SLP229 T10111133 =
2015-01-28 13:56 METAR KMDT 281856Z 34013KT 10SM CLR M01/M16 A3018 RMK AO2 SLP224 T10061156 =
2015-01-28 12:56 METAR KMDT 281756Z 32015KT 10SM CLR M02/M16 A3018 RMK AO2 SLP226 T10171156 11017
                 21083 58007 =
2015-01-28 11:56 METAR KMDT 281656Z 32012KT 10SM CLR M03/M16 A3020 =
2015-01-28 10:56 METAR KMDT 281556Z 32018G26KT 10SM CLR M04/M16 A3020 RMK AO2 PK WND 32026/1552
                 SLP233 T10391156 =
2015-01-28 09:56 METAR KMDT 281456Z 32013G21KT 10SM CLR M05/M16 A3020 =
2015-01-28 08:56 METAR KMDT 281356Z 31014KT 10SM FEW250 M07/M16 A3019 =
2015-01-28 07:56 METAR KMDT 281256Z 31013KT 10SM CLR M07/M16 A3016 =
2015-01-28 06:56 METAR KMDT 281156Z 31012G18KT 10SM FEW250 M08/M16 A3013 RMK AO2 SLP209 4/003
                 T10831156 11072 21100 53025 =
2015-01-28 05:56 METAR KMDT 281056Z 30006KT 10SM FEW250 M10/M16 A3010 =

Support USWX by starting your Amazon purchase here.